createdAt,value
2017-08-07T00:00:28.174Z,1.80
2017-08-07T00:02:59.408Z,2.20
2017-08-07T00:05:29.886Z,2.30
2017-08-07T00:07:58.972Z,2.60
2017-08-07T00:10:30.117Z,2.67
2017-08-07T00:13:01.361Z,2.40
2017-08-07T00:15:32.000Z,2.17
2017-08-07T00:18:06.405Z,1.90
2017-08-07T00:20:35.818Z,2.20
2017-08-07T00:23:09.927Z,2.07
2017-08-07T00:25:38.917Z,3.30
2017-08-07T00:28:10.673Z,3.30
2017-08-07T00:30:48.633Z,3.80
2017-08-07T00:33:18.318Z,3.60
2017-08-07T00:35:49.784Z,3.47
2017-08-07T00:38:18.987Z,3.30
2017-08-07T00:40:48.040Z,2.90
2017-08-07T00:43:16.606Z,2.60
2017-08-07T00:45:45.838Z,3.70
2017-08-07T00:48:15.135Z,4.10
2017-08-07T00:50:45.841Z,3.53
2017-08-07T00:53:21.577Z,3.23
2017-08-07T00:55:52.673Z,2.53
2017-08-07T00:58:23.678Z,3.03
2017-08-07T01:00:54.155Z,2.80
2017-08-07T01:03:30.520Z,2.13
2017-08-07T01:06:00.478Z,2.77
2017-08-07T01:08:31.702Z,2.10
2017-08-07T01:11:02.931Z,3.47
2017-08-07T01:13:36.272Z,2.47
2017-08-07T01:16:06.986Z,2.00
2017-08-07T01:18:38.043Z,2.90
2017-08-07T01:21:09.985Z,2.90
2017-08-07T01:23:47.464Z,2.67
2017-08-07T01:26:19.876Z,3.00
2017-08-07T01:28:52.829Z,3.77
2017-08-07T01:31:27.479Z,3.50
2017-08-07T01:34:00.776Z,4.10
2017-08-07T01:36:29.755Z,4.40
2017-08-07T01:39:03.358Z,4.77
2017-08-07T01:41:32.132Z,4.30
2017-08-07T01:44:01.202Z,4.87
2017-08-07T01:46:32.388Z,4.57
2017-08-07T01:49:02.299Z,4.80
2017-08-07T01:51:31.097Z,4.50
2017-08-07T01:54:10.639Z,4.63
2017-08-07T01:56:41.986Z,4.40
2017-08-07T01:59:18.047Z,4.93
2017-08-07T02:01:51.335Z,5.20
2017-08-07T02:04:22.665Z,5.53
2017-08-07T02:06:54.651Z,5.50
2017-08-07T02:09:26.792Z,4.33
2017-08-07T02:11:58.158Z,5.50
2017-08-07T02:14:28.405Z,4.80
2017-08-07T02:16:58.709Z,4.73
2017-08-07T02:19:34.049Z,5.43
2017-08-07T02:22:07.167Z,4.90
2017-08-07T02:24:38.828Z,5.07
2017-08-07T02:27:10.503Z,4.80
2017-08-07T02:29:39.699Z,4.33
2017-08-07T02:32:15.335Z,5.50
2017-08-07T02:34:52.434Z,5.70
2017-08-07T02:37:24.242Z,4.73
2017-08-07T02:39:59.629Z,5.00
2017-08-07T02:42:32.724Z,5.43
2017-08-07T02:45:02.129Z,4.67
2017-08-07T02:47:32.802Z,4.80
2017-08-07T02:50:01.346Z,5.87
2017-08-07T02:52:29.871Z,5.13
2017-08-07T02:55:00.054Z,4.53
2017-08-07T02:57:29.196Z,4.50
2017-08-07T02:59:59.378Z,5.50
2017-08-07T03:02:28.607Z,5.27
2017-08-07T03:04:58.420Z,5.70
2017-08-07T03:07:28.030Z,5.10
2017-08-07T03:10:00.755Z,5.60
2017-08-07T03:12:31.960Z,5.43
2017-08-07T03:15:04.306Z,5.60
2017-08-07T03:17:36.820Z,5.13
2017-08-07T03:20:05.688Z,6.30
2017-08-07T03:22:38.740Z,4.83
2017-08-07T03:25:09.709Z,5.43
2017-08-07T03:27:40.613Z,5.50
2017-08-07T03:30:09.156Z,4.90
2017-08-07T03:32:38.231Z,6.63
2017-08-07T03:35:12.819Z,5.90
2017-08-07T03:37:46.801Z,6.03
2017-08-07T03:40:16.539Z,5.97
2017-08-07T03:42:51.314Z,5.30
2017-08-07T03:45:25.525Z,5.33
2017-08-07T03:47:54.524Z,5.83
2017-08-07T03:50:27.503Z,5.50
2017-08-07T03:52:57.722Z,5.97
2017-08-07T03:55:31.141Z,5.60
2017-08-07T03:58:01.576Z,5.60
2017-08-07T04:00:33.412Z,6.10
2017-08-07T04:03:08.560Z,6.40
2017-08-07T04:05:41.053Z,7.03
2017-08-07T04:08:10.870Z,5.40
2017-08-07T04:10:40.989Z,5.80
2017-08-07T04:13:14.911Z,6.23
2017-08-07T04:15:45.407Z,5.60
2017-08-07T04:18:16.042Z,5.60
2017-08-07T04:20:44.631Z,5.67
2017-08-07T04:23:15.978Z,5.80
2017-08-07T04:25:45.577Z,6.17
2017-08-07T04:28:14.616Z,5.43
2017-08-07T04:30:44.892Z,4.80
2017-08-07T04:33:19.206Z,5.80
2017-08-07T04:35:51.633Z,5.53
2017-08-07T04:38:21.907Z,5.50
2017-08-07T04:40:55.665Z,5.23
2017-08-07T04:43:27.973Z,5.13
2017-08-07T04:45:58.139Z,5.00
2017-08-07T04:48:29.550Z,6.03
2017-08-07T04:50:59.509Z,5.17
2017-08-07T04:53:28.357Z,4.93
2017-08-07T04:55:57.145Z,5.40
2017-08-07T04:58:29.081Z,5.33
2017-08-07T05:00:57.812Z,4.23
2017-08-07T05:03:32.292Z,5.23
2017-08-07T05:06:03.326Z,4.50
2017-08-07T05:08:34.102Z,4.40
2017-08-07T05:11:10.433Z,4.77
2017-08-07T05:13:41.086Z,5.53
2017-08-07T05:16:18.498Z,5.20
2017-08-07T05:18:48.076Z,6.00
2017-08-07T05:21:17.791Z,4.80
2017-08-07T05:23:46.404Z,4.60
2017-08-07T05:26:17.296Z,5.00
2017-08-07T05:28:53.792Z,4.50
2017-08-07T05:31:34.788Z,4.80
2017-08-07T05:34:05.844Z,4.63
2017-08-07T05:36:39.409Z,4.13
2017-08-07T05:39:09.532Z,4.90
2017-08-07T05:41:41.257Z,4.87
2017-08-07T05:44:12.444Z,4.63
2017-08-07T05:46:45.778Z,4.60
2017-08-07T05:49:14.941Z,5.33
2017-08-07T05:51:45.676Z,4.27
2017-08-07T05:54:14.493Z,4.40
2017-08-07T05:56:45.974Z,4.70
2017-08-07T05:59:17.576Z,4.00
2017-08-07T06:01:50.466Z,4.03
2017-08-07T06:04:28.716Z,4.83
2017-08-07T06:07:03.506Z,4.60
2017-08-07T06:09:35.878Z,4.57
2017-08-07T06:12:06.308Z,3.87
2017-08-07T06:14:36.970Z,3.40
2017-08-07T06:17:06.932Z,3.30
2017-08-07T06:19:36.408Z,3.30
2017-08-07T06:22:05.694Z,4.00
2017-08-07T06:24:38.476Z,3.57
2017-08-07T06:27:09.934Z,3.23
2017-08-07T06:29:41.177Z,3.63
2017-08-07T06:32:13.435Z,3.30
2017-08-07T06:34:44.044Z,2.77
2017-08-07T06:40:02.975Z,2.80
2017-08-07T06:42:32.968Z,2.67
2017-08-07T06:45:02.222Z,2.50
2017-08-07T06:47:33.012Z,3.43
2017-08-07T06:50:04.764Z,2.10
2017-08-07T06:52:39.128Z,2.27
2017-08-07T06:55:09.521Z,2.13
2017-08-07T06:57:40.215Z,2.57
2017-08-07T07:02:52.617Z,1.73
2017-08-07T07:05:21.963Z,2.80
2017-08-07T07:07:52.359Z,1.90
2017-08-07T07:10:21.624Z,2.00
2017-08-07T07:12:50.346Z,2.70
2017-08-07T07:15:18.832Z,2.50
2017-08-07T07:17:48.973Z,2.13
2017-08-07T07:20:18.417Z,2.40
2017-08-07T07:22:47.409Z,1.60
2017-08-07T07:25:18.453Z,1.90
2017-08-07T07:27:48.214Z,1.97
2017-08-07T07:30:16.958Z,2.00
2017-08-07T07:32:46.302Z,1.67
2017-08-07T07:35:18.163Z,2.00
2017-08-07T07:37:48.691Z,1.57
2017-08-07T07:40:17.592Z,1.70
2017-08-07T07:42:46.410Z,1.70
2017-08-07T07:45:15.567Z,1.90
2017-08-07T07:47:44.713Z,2.07
2017-08-07T07:50:14.455Z,1.60
2017-08-07T07:52:43.399Z,1.97
2017-08-07T07:55:12.754Z,2.37
2017-08-07T07:57:43.226Z,2.23
2017-08-07T08:00:12.999Z,2.60
2017-08-07T08:02:44.586Z,2.07
2017-08-07T08:05:16.665Z,2.13
2017-08-07T08:07:47.496Z,2.00
2017-08-07T08:10:20.608Z,2.20
2017-08-07T08:12:53.106Z,1.77
2017-08-07T08:15:23.660Z,2.40
2017-08-07T08:18:00.324Z,2.27
2017-08-07T08:20:38.943Z,2.03
2017-08-07T08:23:11.955Z,1.80
2017-08-07T08:25:45.732Z,2.00
2017-08-07T08:28:21.393Z,2.20
2017-08-07T08:30:52.474Z,2.47
2017-08-07T08:33:21.962Z,2.97
2017-08-07T08:35:57.060Z,1.80
2017-08-07T08:38:28.847Z,2.30
2017-08-07T08:41:00.417Z,2.20
2017-08-07T08:43:36.784Z,2.47
2017-08-07T08:46:07.111Z,1.90
2017-08-07T08:48:37.646Z,2.20
2017-08-07T08:51:13.551Z,2.33
2017-08-07T08:53:45.672Z,2.30
2017-08-07T08:56:17.611Z,2.10
2017-08-07T08:58:46.502Z,1.70
2017-08-07T09:01:15.514Z,3.43
2017-08-07T09:03:46.119Z,2.67
2017-08-07T09:06:15.697Z,2.20
2017-08-07T09:08:45.033Z,1.73
2017-08-07T09:11:14.923Z,2.10
2017-08-07T09:13:48.181Z,1.90
2017-08-07T09:16:18.398Z,1.83
2017-08-07T09:18:46.958Z,2.47
2017-08-07T09:21:16.667Z,2.23
2017-08-07T09:23:45.370Z,2.23
2017-08-07T09:26:19.447Z,1.80
2017-08-07T09:28:48.350Z,2.30
2017-08-07T09:31:17.548Z,2.50
2017-08-07T09:33:51.216Z,2.17
2017-08-07T09:36:21.953Z,1.90
2017-08-07T09:38:50.652Z,1.97
2017-08-07T09:41:19.250Z,2.00
2017-08-07T09:43:47.892Z,2.10
2017-08-07T09:46:21.132Z,2.13
2017-08-07T09:48:51.428Z,2.37
2017-08-07T09:51:24.959Z,2.50
2017-08-07T09:53:59.133Z,2.50
2017-08-07T09:56:29.398Z,2.10
2017-08-07T09:58:59.155Z,2.70
2017-08-07T10:01:29.006Z,1.83
2017-08-07T10:03:57.722Z,2.43
2017-08-07T10:06:27.142Z,1.90
2017-08-07T10:08:57.937Z,1.87
2017-08-07T10:11:28.335Z,2.20
2017-08-07T10:13:57.749Z,2.00
2017-08-07T10:16:27.229Z,2.00
2017-08-07T10:18:58.173Z,2.20
2017-08-07T10:21:29.178Z,2.00
2017-08-07T10:24:09.208Z,2.70
2017-08-07T10:26:38.342Z,2.50
2017-08-07T10:29:07.558Z,2.27
2017-08-07T10:31:40.690Z,2.73
2017-08-07T10:34:16.122Z,2.50
2017-08-07T10:36:47.280Z,2.53
2017-08-07T10:39:16.402Z,2.30
2017-08-07T10:41:46.627Z,2.00
2017-08-07T10:44:18.282Z,2.40
2017-08-07T10:46:48.811Z,2.20
2017-08-07T10:49:18.217Z,2.17
2017-08-07T10:51:47.575Z,2.43
2017-08-07T10:54:18.212Z,2.40
2017-08-07T10:56:48.984Z,2.60
2017-08-07T10:59:19.629Z,2.23
2017-08-07T11:01:52.596Z,2.03
2017-08-07T11:04:21.855Z,2.20
2017-08-07T11:06:53.141Z,2.30
2017-08-07T11:09:22.572Z,2.13
2017-08-07T11:11:51.139Z,2.50
2017-08-07T11:14:19.748Z,2.47
2017-08-07T11:16:48.290Z,2.50
2017-08-07T11:19:19.687Z,2.70
2017-08-07T11:21:53.546Z,2.23
2017-08-07T11:24:25.939Z,2.70
2017-08-07T11:26:57.158Z,2.13
2017-08-07T11:29:27.993Z,2.70
2017-08-07T11:31:57.668Z,2.00
2017-08-07T11:34:29.976Z,2.10
2017-08-07T11:36:59.407Z,2.00
2017-08-07T11:39:41.596Z,2.47
2017-08-07T11:42:28.877Z,2.27
2017-08-07T11:44:59.568Z,2.23
2017-08-07T11:47:31.169Z,2.23
2017-08-07T11:50:02.010Z,2.20
2017-08-07T11:52:34.024Z,2.70
2017-08-07T11:55:06.295Z,2.10
2017-08-07T11:57:38.304Z,2.33
2017-08-07T12:00:08.740Z,2.50
2017-08-07T12:02:37.627Z,2.20
2017-08-07T12:05:10.316Z,1.93
2017-08-07T12:07:43.084Z,2.13
2017-08-07T12:10:15.310Z,2.17
2017-08-07T12:12:44.762Z,2.10
2017-08-07T12:15:18.369Z,1.50
2017-08-07T12:17:51.308Z,2.13
2017-08-07T12:20:21.901Z,2.17
2017-08-07T12:22:51.741Z,2.53
2017-08-07T12:25:23.144Z,1.60
2017-08-07T12:27:56.221Z,2.73
2017-08-07T12:30:27.694Z,2.17
2017-08-07T12:35:50.901Z,2.53
2017-08-07T12:38:23.853Z,1.80
2017-08-07T12:40:54.219Z,2.20
2017-08-07T12:43:23.723Z,2.00
2017-08-07T12:45:52.716Z,2.27
2017-08-07T12:51:23.505Z,2.27
2017-08-07T12:53:57.125Z,1.83
2017-08-07T12:59:09.857Z,2.03
2017-08-07T13:01:41.710Z,3.00
2017-08-07T13:04:16.896Z,2.10
2017-08-07T13:06:57.701Z,1.77
2017-08-07T13:09:33.068Z,1.60
2017-08-07T13:12:12.432Z,2.23
2017-08-07T13:14:55.770Z,1.87
2017-08-07T13:17:25.305Z,1.97
2017-08-07T13:19:58.357Z,2.10
2017-08-07T13:22:30.175Z,3.27
2017-08-07T13:25:01.493Z,2.47
2017-08-07T13:27:30.744Z,1.83
2017-08-07T13:30:00.361Z,2.53
2017-08-07T13:32:29.828Z,2.57
2017-08-07T13:35:00.436Z,2.17
2017-08-07T13:37:31.216Z,2.40
2017-08-07T13:40:05.498Z,2.47
2017-08-07T13:42:40.154Z,2.13
2017-08-07T13:45:15.168Z,2.23
2017-08-07T13:47:43.544Z,2.30
2017-08-07T13:50:16.469Z,2.20
2017-08-07T13:52:48.744Z,2.80
2017-08-07T13:55:19.991Z,2.17
2017-08-07T13:57:58.819Z,2.27
2017-08-07T14:00:29.012Z,2.23
2017-08-07T14:03:02.285Z,2.23
2017-08-07T14:05:35.804Z,2.13
2017-08-07T14:08:05.031Z,1.77
2017-08-07T14:10:35.970Z,2.50
2017-08-07T14:13:09.082Z,2.70
2017-08-07T14:15:42.149Z,2.40
2017-08-07T14:18:10.481Z,2.27
2017-08-07T14:20:39.080Z,2.80
2017-08-07T14:23:08.824Z,2.40
2017-08-07T14:25:37.373Z,2.17
2017-08-07T14:28:08.884Z,2.73
2017-08-07T14:30:37.582Z,2.53
2017-08-07T14:33:05.881Z,2.60
2017-08-07T14:35:34.473Z,2.07
2017-08-07T14:38:06.300Z,2.30
2017-08-07T14:40:34.661Z,2.27
2017-08-07T14:43:03.196Z,2.20
2017-08-07T14:45:37.096Z,2.60
2017-08-07T14:48:07.452Z,2.40
2017-08-07T14:50:35.863Z,1.90
2017-08-07T14:53:06.522Z,3.20
2017-08-07T14:55:37.038Z,2.40
2017-08-07T14:58:11.274Z,2.70
2017-08-07T15:00:44.248Z,1.97
2017-08-07T15:03:15.406Z,2.17
2017-08-07T15:05:44.176Z,2.10
2017-08-07T15:08:15.959Z,2.60
2017-08-07T15:10:45.848Z,2.30
2017-08-07T15:13:17.633Z,3.50
2017-08-07T15:15:50.929Z,3.17
2017-08-07T15:18:22.865Z,2.37
2017-08-07T15:20:52.252Z,1.93
2017-08-07T15:23:22.083Z,2.63
2017-08-07T15:25:50.475Z,2.50
2017-08-07T15:28:20.315Z,2.53
2017-08-07T15:30:49.296Z,2.50
2017-08-07T15:33:17.625Z,2.23
2017-08-07T15:35:45.856Z,2.63
2017-08-07T15:38:16.792Z,2.83
2017-08-07T15:40:45.069Z,9.37
2017-08-07T15:43:16.052Z,3.50
2017-08-07T15:45:44.369Z,2.93
2017-08-07T15:48:12.853Z,1.83
2017-08-07T15:50:41.318Z,2.97
2017-08-07T15:53:10.377Z,2.93
2017-08-07T15:55:38.992Z,3.00
2017-08-07T15:58:07.703Z,2.80
2017-08-07T16:00:37.513Z,2.60
2017-08-07T16:03:06.508Z,2.90
2017-08-07T16:05:37.040Z,2.90
2017-08-07T16:08:06.669Z,2.50
2017-08-07T16:10:35.231Z,2.50
2017-08-07T16:13:03.903Z,2.10
2017-08-07T16:15:32.355Z,2.77
2017-08-07T16:18:01.379Z,2.50
2017-08-07T16:20:33.320Z,2.87
2017-08-07T16:23:10.918Z,2.40
2017-08-07T16:25:39.940Z,3.13
2017-08-07T16:28:08.520Z,2.57
2017-08-07T16:30:38.658Z,2.50
2017-08-07T16:33:08.097Z,2.87
2017-08-07T16:35:37.339Z,2.47
2017-08-07T16:38:06.324Z,2.77
2017-08-07T16:40:34.955Z,2.97
2017-08-07T16:43:03.440Z,2.70
2017-08-07T16:45:32.017Z,2.33
2017-08-07T16:48:00.978Z,2.17
2017-08-07T16:50:33.143Z,2.50
2017-08-07T16:53:11.203Z,2.47
2017-08-07T16:55:40.859Z,2.40
2017-08-07T16:58:12.569Z,2.43
2017-08-07T17:00:40.998Z,2.30
2017-08-07T17:03:09.559Z,2.83
2017-08-07T17:05:38.219Z,2.50
2017-08-07T17:08:07.480Z,2.60
2017-08-07T17:10:37.691Z,3.50
2017-08-07T17:13:06.633Z,2.80
2017-08-07T17:15:38.226Z,2.93
2017-08-07T17:18:06.605Z,3.47
2017-08-07T17:20:35.735Z,2.67
2017-08-07T17:23:04.036Z,2.93
2017-08-07T17:25:33.434Z,3.00
2017-08-07T17:28:01.667Z,2.33
2017-08-07T17:30:30.155Z,3.30
2017-08-07T17:32:59.218Z,2.83
2017-08-07T17:35:28.207Z,2.90
2017-08-07T17:37:57.227Z,2.50
2017-08-07T17:40:25.805Z,16.13
2017-08-07T17:42:54.649Z,4.40
2017-08-07T17:45:23.253Z,2.70
2017-08-07T17:47:51.947Z,3.83
2017-08-07T17:50:21.036Z,2.90
2017-08-07T17:52:49.335Z,4.10
2017-08-07T17:55:18.524Z,2.77
2017-08-07T17:57:47.521Z,3.30
2017-08-07T18:00:19.580Z,3.30
2017-08-07T18:02:48.848Z,3.20
2017-08-07T18:05:18.733Z,2.90
2017-08-07T18:07:53.261Z,2.80
2017-08-07T18:10:21.599Z,2.40
2017-08-07T18:12:49.923Z,2.80
2017-08-07T18:15:19.171Z,2.90
2017-08-07T18:17:48.074Z,2.87
2017-08-07T18:20:16.459Z,3.10
2017-08-07T18:22:45.643Z,2.57
2017-08-07T18:25:14.382Z,4.33
2017-08-07T18:27:43.381Z,3.07
2017-08-07T18:30:11.770Z,2.90
2017-08-07T18:32:41.882Z,2.93
2017-08-07T18:35:10.277Z,3.50
2017-08-07T18:37:41.085Z,3.10
2017-08-07T18:40:09.277Z,2.80
2017-08-07T18:42:44.241Z,3.13
2017-08-07T18:45:13.443Z,2.97
2017-08-07T18:47:43.032Z,3.57
2017-08-07T18:50:15.049Z,3.67
2017-08-07T18:52:43.262Z,4.47
2017-08-07T18:55:11.532Z,4.20
2017-08-07T18:57:39.928Z,4.60
2017-08-07T19:00:10.308Z,6.57
2017-08-07T19:02:40.701Z,5.53
2017-08-07T19:05:10.254Z,5.43
2017-08-07T19:07:38.961Z,4.90
2017-08-07T19:10:08.223Z,4.97
2017-08-07T19:12:37.411Z,5.37
2017-08-07T19:15:05.757Z,6.07
2017-08-07T19:17:34.714Z,7.07
2017-08-07T19:20:03.001Z,9.10
2017-08-07T19:22:31.270Z,10.60
2017-08-07T19:24:59.509Z,12.87
2017-08-07T19:27:27.757Z,15.17
2017-08-07T19:29:56.074Z,16.87
2017-08-07T19:32:24.438Z,15.57
2017-08-07T19:34:52.835Z,14.60
2017-08-07T19:37:22.739Z,13.90
2017-08-07T19:39:51.986Z,9.07
2017-08-07T19:42:20.427Z,8.27
2017-08-07T19:44:50.291Z,8.03
2017-08-07T19:47:18.717Z,6.60
2017-08-07T19:49:48.766Z,5.60
2017-08-07T19:52:17.125Z,4.50
2017-08-07T19:54:45.431Z,5.27
2017-08-07T19:57:17.123Z,3.60
2017-08-07T19:59:45.381Z,3.70
2017-08-07T20:02:14.351Z,3.70
2017-08-07T20:04:46.077Z,4.10
2017-08-07T20:07:17.280Z,3.70
2017-08-07T20:09:45.833Z,3.43
2017-08-07T20:12:15.227Z,3.53
2017-08-07T20:14:44.325Z,3.30
2017-08-07T20:17:13.765Z,2.90
2017-08-07T20:19:43.274Z,3.70
2017-08-07T20:22:15.759Z,3.83
2017-08-07T20:24:45.469Z,3.40
2017-08-07T20:27:13.997Z,3.60
2017-08-07T20:29:42.202Z,3.50
2017-08-07T20:32:11.116Z,3.17
2017-08-07T20:34:39.579Z,3.23
2017-08-07T20:37:07.959Z,2.93
2017-08-07T20:39:36.611Z,2.47
2017-08-07T20:42:06.778Z,3.10
2017-08-07T20:44:35.216Z,3.10
2017-08-07T20:47:04.607Z,2.77
2017-08-07T20:49:34.702Z,3.07
2017-08-07T20:52:03.874Z,3.47
2017-08-07T20:54:32.300Z,3.40
2017-08-07T20:57:01.556Z,3.33
2017-08-07T20:59:30.722Z,3.50
2017-08-07T21:01:59.127Z,3.00
2017-08-07T21:04:28.076Z,2.97
2017-08-07T21:06:58.507Z,3.20
2017-08-07T21:09:26.881Z,3.20
2017-08-07T21:11:56.121Z,3.67
2017-08-07T21:14:25.903Z,3.87
2017-08-07T21:16:55.952Z,3.60
2017-08-07T21:19:26.381Z,3.10
2017-08-07T21:21:54.908Z,3.10
2017-08-07T21:24:25.701Z,3.00
2017-08-07T21:26:54.799Z,2.90
2017-08-07T21:29:24.118Z,3.40
2017-08-07T21:31:52.828Z,3.70
2017-08-07T21:34:22.584Z,3.23
2017-08-07T21:36:54.092Z,3.07
2017-08-07T21:39:22.300Z,3.80
2017-08-07T21:41:51.478Z,4.07
2017-08-07T21:44:19.891Z,2.93
2017-08-07T21:46:49.006Z,3.47
2017-08-07T21:49:17.572Z,3.33
2017-08-07T21:51:47.893Z,3.23
2017-08-07T21:54:17.817Z,2.73
2017-08-07T21:56:48.752Z,3.60
2017-08-07T21:59:17.229Z,3.27
2017-08-07T22:01:48.483Z,3.30
2017-08-07T22:04:21.263Z,2.87
2017-08-07T22:06:51.704Z,3.30
2017-08-07T22:09:25.615Z,3.90
2017-08-07T22:11:54.240Z,3.10
2017-08-07T22:14:22.787Z,3.30
2017-08-07T22:16:51.743Z,3.10
2017-08-07T22:19:25.668Z,4.23
2017-08-07T22:21:55.571Z,3.40
2017-08-07T22:24:24.569Z,3.90
2017-08-07T22:26:53.992Z,3.70
2017-08-07T22:29:22.290Z,3.50
2017-08-07T22:31:52.830Z,3.50
2017-08-07T22:34:22.078Z,3.67
2017-08-07T22:36:50.596Z,3.97
2017-08-07T22:39:19.248Z,4.07
2017-08-07T22:41:48.193Z,3.77
2017-08-07T22:44:16.647Z,3.17
2017-08-07T22:46:44.980Z,3.23
2017-08-07T22:49:15.310Z,3.57
2017-08-07T22:51:43.974Z,3.40
2017-08-07T22:54:13.715Z,3.40
2017-08-07T22:56:44.525Z,3.87
2017-08-07T22:59:18.839Z,3.53
2017-08-07T23:01:49.092Z,3.83
2017-08-07T23:04:22.108Z,3.73
2017-08-07T23:06:56.081Z,3.37
2017-08-07T23:09:25.381Z,3.73
2017-08-07T23:11:59.139Z,3.07
2017-08-07T23:14:29.283Z,4.10
2017-08-07T23:17:00.857Z,3.80
2017-08-07T23:19:30.378Z,3.87
2017-08-07T23:22:04.890Z,3.47
2017-08-07T23:24:41.051Z,3.57
2017-08-07T23:27:14.190Z,3.80
2017-08-07T23:29:50.827Z,3.70
2017-08-07T23:32:19.410Z,3.83
2017-08-07T23:34:53.120Z,3.40
2017-08-07T23:37:22.616Z,3.50
2017-08-07T23:39:51.242Z,3.70
2017-08-07T23:42:24.389Z,4.17
2017-08-07T23:45:01.489Z,3.63
2017-08-07T23:47:32.331Z,4.40
2017-08-07T23:50:01.304Z,3.87
2017-08-07T23:52:33.392Z,3.80
2017-08-07T23:55:01.807Z,3.50
2017-08-07T23:57:31.242Z,4.10
